createdAt,value
2023-06-30T00:00:42.412Z,14.40
2023-06-30T00:03:10.639Z,15.00
2023-06-30T00:05:38.852Z,14.00
2023-06-30T00:08:09.801Z,15.80
2023-06-30T00:10:37.977Z,14.75
2023-06-30T00:13:06.037Z,16.60
2023-06-30T00:15:35.490Z,20.00
2023-06-30T00:18:03.608Z,18.25
2023-06-30T00:20:31.698Z,18.20
2023-06-30T00:22:59.775Z,19.00
2023-06-30T00:25:27.818Z,17.00
2023-06-30T00:27:55.899Z,18.60
2023-06-30T00:30:23.968Z,22.50
2023-06-30T00:32:53.468Z,19.00
2023-06-30T00:35:21.873Z,21.25
2023-06-30T00:37:50.008Z,20.00
2023-06-30T00:40:18.965Z,21.40
2023-06-30T00:42:47.041Z,23.80
2023-06-30T00:45:15.099Z,20.50
2023-06-30T00:47:43.752Z,20.40
2023-06-30T00:50:13.904Z,27.00
2023-06-30T00:52:43.453Z,19.25
2023-06-30T00:55:11.540Z,19.00
2023-06-30T00:57:39.621Z,23.40
2023-06-30T01:00:12.341Z,18.00
2023-06-30T01:02:46.200Z,26.00
2023-06-30T01:05:19.834Z,22.40
2023-06-30T01:07:50.194Z,20.00
2023-06-30T01:10:25.359Z,24.50
2023-06-30T01:12:53.558Z,22.00
2023-06-30T01:15:21.656Z,23.00
2023-06-30T01:17:50.717Z,24.40
2023-06-30T01:20:20.375Z,25.25
2023-06-30T01:22:51.802Z,20.50
2023-06-30T01:25:21.139Z,18.80
2023-06-30T01:27:50.517Z,19.40
2023-06-30T01:30:19.723Z,28.40
2023-06-30T01:32:48.699Z,18.00
2023-06-30T01:35:16.783Z,21.20
2023-06-30T01:37:46.244Z,19.00
2023-06-30T01:40:14.528Z,24.00
2023-06-30T01:42:42.614Z,22.00
2023-06-30T01:45:11.876Z,20.60
2023-06-30T01:47:39.986Z,17.80
2023-06-30T01:50:08.795Z,17.00
2023-06-30T01:52:36.959Z,24.25
2023-06-30T01:55:07.144Z,20.80
2023-06-30T01:57:35.438Z,17.20
2023-06-30T02:00:04.500Z,20.60
2023-06-30T02:02:40.588Z,18.40
2023-06-30T02:05:10.695Z,22.00
2023-06-30T02:07:38.831Z,19.75
2023-06-30T02:10:11.637Z,19.40
2023-06-30T02:12:39.693Z,17.50
2023-06-30T02:15:10.064Z,21.40
2023-06-30T02:17:38.169Z,19.40
2023-06-30T02:20:08.859Z,20.60
2023-06-30T02:22:36.923Z,18.60
2023-06-30T02:25:05.606Z,21.40
2023-06-30T02:27:35.020Z,22.60
2023-06-30T02:30:06.606Z,19.60
2023-06-30T02:32:39.231Z,18.40
2023-06-30T02:35:08.569Z,19.80
2023-06-30T02:37:36.915Z,20.80
2023-06-30T02:40:05.987Z,20.00
2023-06-30T02:42:35.446Z,23.50
2023-06-30T02:45:05.210Z,26.00
2023-06-30T02:47:33.918Z,23.75
2023-06-30T02:50:02.062Z,25.75
2023-06-30T02:52:32.269Z,25.00
2023-06-30T02:55:00.365Z,20.50
2023-06-30T02:57:28.482Z,19.00
2023-06-30T02:59:58.640Z,18.20
2023-06-30T03:02:27.809Z,21.00
2023-06-30T03:04:57.234Z,19.00
2023-06-30T03:07:26.643Z,17.20
2023-06-30T03:09:55.054Z,25.00
2023-06-30T03:12:23.328Z,21.75
2023-06-30T03:14:51.574Z,19.75
2023-06-30T03:17:21.028Z,22.50
2023-06-30T03:19:49.112Z,23.50
2023-06-30T03:22:17.181Z,22.60
2023-06-30T03:24:45.290Z,20.40
2023-06-30T03:27:13.413Z,23.20
2023-06-30T03:29:41.819Z,23.80
2023-06-30T03:32:10.219Z,24.50
2023-06-30T03:34:40.971Z,21.00
2023-06-30T03:37:09.053Z,22.80
2023-06-30T03:39:37.295Z,22.20
2023-06-30T03:42:05.802Z,22.00
2023-06-30T03:44:33.880Z,24.00
2023-06-30T03:47:02.116Z,20.60
2023-06-30T03:49:30.465Z,23.25
2023-06-30T03:51:59.904Z,17.00
2023-06-30T03:54:27.962Z,24.00
2023-06-30T03:56:58.231Z,23.75
2023-06-30T03:59:26.325Z,17.60
2023-06-30T04:01:55.139Z,21.00
2023-06-30T04:04:23.376Z,25.40
2023-06-30T04:06:51.915Z,22.00
2023-06-30T04:09:21.459Z,19.40
2023-06-30T04:11:49.585Z,21.25
2023-06-30T04:14:18.137Z,20.00
2023-06-30T04:16:46.355Z,24.00
2023-06-30T04:19:14.598Z,19.60
2023-06-30T04:21:42.926Z,29.50
2023-06-30T04:24:11.026Z,27.00
2023-06-30T04:26:41.254Z,26.25
2023-06-30T04:29:09.321Z,22.60
2023-06-30T04:31:37.455Z,27.00
2023-06-30T04:34:05.543Z,19.25
2023-06-30T04:36:33.606Z,22.40
2023-06-30T04:39:01.741Z,19.60
2023-06-30T04:41:29.880Z,28.00
2023-06-30T04:44:00.737Z,23.25
2023-06-30T04:46:29.374Z,27.80
2023-06-30T04:48:57.931Z,27.40
2023-06-30T04:51:26.421Z,27.80
2023-06-30T04:53:54.539Z,27.75
2023-06-30T04:56:22.627Z,26.00
2023-06-30T04:58:51.193Z,26.00
2023-06-30T05:01:20.690Z,30.25
2023-06-30T05:03:49.237Z,21.00
2023-06-30T05:06:17.589Z,24.60
2023-06-30T05:08:45.694Z,27.00
2023-06-30T05:11:13.777Z,25.75
2023-06-30T05:13:41.846Z,26.60
2023-06-30T05:16:11.151Z,24.50
2023-06-30T05:18:40.817Z,22.25
2023-06-30T05:21:09.432Z,26.00
2023-06-30T05:23:37.483Z,29.00
2023-06-30T05:26:06.708Z,22.00
2023-06-30T05:28:36.367Z,19.75
2023-06-30T05:31:04.800Z,25.25
2023-06-30T05:33:32.917Z,25.00
2023-06-30T05:36:02.343Z,19.00
2023-06-30T05:38:30.697Z,24.00
2023-06-30T05:41:00.071Z,22.00
2023-06-30T05:43:28.164Z,18.80
2023-06-30T05:45:56.332Z,19.00
2023-06-30T05:48:24.421Z,20.00
2023-06-30T05:50:52.476Z,21.00
2023-06-30T05:53:23.114Z,21.00
2023-06-30T05:55:51.183Z,16.60
2023-06-30T05:58:19.267Z,22.40
2023-06-30T06:00:47.316Z,21.50
2023-06-30T06:03:15.692Z,20.00
2023-06-30T06:05:44.599Z,22.60
2023-06-30T06:08:12.983Z,20.60
2023-06-30T06:10:42.397Z,16.25
2023-06-30T06:13:10.669Z,22.00
2023-06-30T06:15:38.721Z,18.00
2023-06-30T06:18:06.888Z,22.60
2023-06-30T06:20:34.983Z,21.40
2023-06-30T06:23:03.035Z,21.75
2023-06-30T06:25:31.120Z,21.25
2023-06-30T06:28:00.575Z,22.00
2023-06-30T06:30:28.709Z,23.00
2023-06-30T06:32:56.855Z,23.60
2023-06-30T06:35:24.945Z,25.75
2023-06-30T06:37:53.002Z,22.80
2023-06-30T06:40:21.248Z,24.50
2023-06-30T06:42:49.571Z,28.20
2023-06-30T06:45:19.797Z,29.60
2023-06-30T06:48:20.044Z,24.50
2023-06-30T06:50:48.221Z,28.00
2023-06-30T06:53:20.247Z,25.20
2023-06-30T06:55:49.400Z,24.00
2023-06-30T06:58:17.505Z,24.50
2023-06-30T07:00:47.313Z,29.00
2023-06-30T07:03:15.690Z,26.00
2023-06-30T07:05:45.628Z,29.20
2023-06-30T07:08:14.146Z,28.20
2023-06-30T07:10:42.239Z,27.00
2023-06-30T07:13:10.399Z,32.00
2023-06-30T07:15:38.497Z,31.00
2023-06-30T07:18:08.119Z,28.00
2023-06-30T07:20:36.377Z,30.00
2023-06-30T07:23:04.529Z,24.80
2023-06-30T07:25:32.629Z,28.75
2023-06-30T07:28:00.765Z,29.00
2023-06-30T07:30:29.602Z,23.50
2023-06-30T07:32:57.814Z,22.00
2023-06-30T07:35:27.317Z,27.75
2023-06-30T07:37:55.379Z,30.60
2023-06-30T07:40:24.359Z,26.40
2023-06-30T07:42:54.588Z,28.00
2023-06-30T07:45:22.861Z,26.75
2023-06-30T07:47:51.097Z,29.20
2023-06-30T07:50:19.300Z,29.60
2023-06-30T07:52:49.872Z,27.00
2023-06-30T07:55:18.565Z,25.40
2023-06-30T07:57:46.896Z,30.00
2023-06-30T08:00:16.764Z,23.80
2023-06-30T08:02:45.002Z,28.75
2023-06-30T08:05:13.370Z,29.00
2023-06-30T08:07:48.835Z,30.20
2023-06-30T08:10:20.298Z,24.00
2023-06-30T08:12:48.415Z,26.40
2023-06-30T08:15:16.656Z,33.60
2023-06-30T08:17:52.088Z,22.00
2023-06-30T08:20:22.913Z,24.00
2023-06-30T08:22:51.103Z,26.80
2023-06-30T08:25:23.204Z,25.60
2023-06-30T08:27:51.321Z,23.50
2023-06-30T08:30:22.762Z,23.00
2023-06-30T08:32:52.239Z,22.75
2023-06-30T08:35:20.519Z,24.40
2023-06-30T08:37:52.792Z,24.25
2023-06-30T08:40:23.851Z,21.40
2023-06-30T08:42:52.108Z,29.20
2023-06-30T08:45:20.236Z,28.00
2023-06-30T08:47:48.418Z,31.75
2023-06-30T08:50:16.538Z,24.40
2023-06-30T08:52:44.726Z,23.60
2023-06-30T08:55:12.804Z,22.60
2023-06-30T08:57:43.133Z,25.00
2023-06-30T09:00:12.388Z,26.00
2023-06-30T09:02:40.732Z,21.40
2023-06-30T09:05:09.659Z,22.00
2023-06-30T09:07:41.316Z,29.60
2023-06-30T09:10:10.397Z,30.80
2023-06-30T09:12:39.371Z,25.25
2023-06-30T09:15:09.893Z,25.50
2023-06-30T09:17:38.006Z,29.00
2023-06-30T09:20:07.290Z,24.50
2023-06-30T09:22:54.275Z,26.00
2023-06-30T09:25:42.130Z,26.25
2023-06-30T09:28:12.086Z,21.50
2023-06-30T09:30:42.883Z,22.80
2023-06-30T09:33:11.024Z,24.00
2023-06-30T09:35:39.941Z,24.50
2023-06-30T09:38:12.333Z,21.60
2023-06-30T09:40:40.433Z,24.00
2023-06-30T09:43:09.171Z,23.60
2023-06-30T09:45:37.371Z,20.60
2023-06-30T09:48:08.015Z,20.80
2023-06-30T09:50:36.140Z,16.75
2023-06-30T09:53:04.197Z,21.50
2023-06-30T09:55:32.274Z,23.20
2023-06-30T09:58:00.319Z,27.75
2023-06-30T10:00:36.030Z,18.00
2023-06-30T10:03:06.854Z,18.00
2023-06-30T10:05:35.038Z,15.40
2023-06-30T10:08:03.313Z,20.40
2023-06-30T10:10:31.567Z,20.00
2023-06-30T10:13:00.328Z,20.00
2023-06-30T10:15:28.644Z,26.75
2023-06-30T10:17:56.880Z,17.40
2023-06-30T10:20:37.975Z,20.25
2023-06-30T10:23:10.894Z,15.00
2023-06-30T10:25:39.629Z,13.00
2023-06-30T10:28:08.601Z,17.20
2023-06-30T10:30:36.931Z,14.60
2023-06-30T10:33:05.149Z,13.60
2023-06-30T10:35:34.669Z,12.60
2023-06-30T10:38:02.799Z,15.00
2023-06-30T10:40:31.783Z,13.25
2023-06-30T10:43:00.241Z,19.00
2023-06-30T10:45:29.660Z,12.00
2023-06-30T10:47:57.820Z,11.25
2023-06-30T10:50:25.963Z,13.00
2023-06-30T10:52:56.053Z,11.00
2023-06-30T10:55:24.598Z,14.50
2023-06-30T10:57:53.512Z,11.00
2023-06-30T11:00:22.969Z,7.00
2023-06-30T11:02:51.661Z,7.00
2023-06-30T11:05:21.217Z,10.00
2023-06-30T11:07:49.985Z,8.40
2023-06-30T11:10:29.721Z,10.25
2023-06-30T11:12:58.534Z,7.75
2023-06-30T11:15:30.928Z,7.75
2023-06-30T11:18:02.438Z,8.00
2023-06-30T11:20:31.225Z,9.40
2023-06-30T11:23:01.761Z,7.40
2023-06-30T11:25:31.707Z,9.50
2023-06-30T11:28:00.924Z,7.00
2023-06-30T11:30:29.063Z,6.75
2023-06-30T11:32:59.177Z,6.80
2023-06-30T11:35:27.559Z,7.00
2023-06-30T11:37:55.834Z,6.00
2023-06-30T11:40:24.020Z,8.00
2023-06-30T11:42:54.225Z,6.00
2023-06-30T11:45:22.342Z,10.40
2023-06-30T11:47:52.693Z,4.20
2023-06-30T11:50:21.539Z,4.00
2023-06-30T11:52:49.793Z,2.60
2023-06-30T11:55:18.088Z,4.40
2023-06-30T11:57:48.048Z,5.40
2023-06-30T12:00:19.191Z,3.00
2023-06-30T12:03:00.020Z,6.20
2023-06-30T12:05:28.972Z,4.00
2023-06-30T12:07:58.199Z,2.67
2023-06-30T12:10:38.223Z,4.00
2023-06-30T12:13:07.901Z,3.75
2023-06-30T12:15:38.018Z,6.20
2023-06-30T12:18:06.647Z,3.00
2023-06-30T12:20:36.429Z,4.50
2023-06-30T12:23:05.352Z,4.00
2023-06-30T12:25:34.927Z,4.00
2023-06-30T12:28:04.881Z,4.00
2023-06-30T12:30:32.967Z,5.67
2023-06-30T12:33:02.923Z,3.00
2023-06-30T12:35:31.436Z,5.00
2023-06-30T12:38:00.443Z,4.00
2023-06-30T12:40:29.471Z,4.00
2023-06-30T12:42:57.643Z,4.00
2023-06-30T12:45:25.732Z,5.00
2023-06-30T12:47:53.900Z,3.00
2023-06-30T12:50:23.400Z,6.00
2023-06-30T12:52:51.785Z,3.00
2023-06-30T12:55:22.866Z,2.20
2023-06-30T12:57:50.993Z,4.00
2023-06-30T13:00:19.702Z,4.75
2023-06-30T13:02:47.835Z,3.50
2023-06-30T13:05:15.997Z,4.50
2023-06-30T13:07:45.687Z,4.00
2023-06-30T13:10:14.955Z,1.80
2023-06-30T13:12:43.057Z,4.00
2023-06-30T13:15:11.518Z,4.50
2023-06-30T13:17:39.642Z,4.00
2023-06-30T13:20:09.737Z,2.60
2023-06-30T13:22:42.814Z,3.40
2023-06-30T13:25:20.697Z,3.75
2023-06-30T13:27:48.761Z,3.80
2023-06-30T13:30:16.907Z,2.50
2023-06-30T13:32:45.144Z,2.60
2023-06-30T13:35:13.241Z,4.00
2023-06-30T13:37:41.290Z,3.00
2023-06-30T13:40:10.553Z,3.50
2023-06-30T13:42:40.023Z,2.33
2023-06-30T13:45:11.056Z,2.00
2023-06-30T13:47:39.558Z,3.00
2023-06-30T13:50:08.591Z,3.00
2023-06-30T13:52:36.712Z,2.60
2023-06-30T13:55:05.373Z,1.33
2023-06-30T13:57:33.451Z,1.75
2023-06-30T14:00:02.856Z,1.60
2023-06-30T14:02:33.485Z,2.00
2023-06-30T14:05:01.709Z,2.80
2023-06-30T14:07:29.907Z,1.00
2023-06-30T14:09:59.389Z,0.80
2023-06-30T14:12:27.484Z,3.40
2023-06-30T14:14:55.583Z,0.60
2023-06-30T14:17:25.113Z,2.00
2023-06-30T14:19:53.289Z,2.60
2023-06-30T14:22:21.402Z,3.00
2023-06-30T14:24:49.527Z,2.25
2023-06-30T14:27:17.573Z,0.00
2023-06-30T14:29:45.687Z,1.40
2023-06-30T14:32:13.781Z,2.00
2023-06-30T14:34:43.472Z,1.00
2023-06-30T14:37:11.564Z,1.60
2023-06-30T14:39:39.641Z,1.60
2023-06-30T14:42:16.202Z,2.00
2023-06-30T14:44:51.293Z,2.00
2023-06-30T14:47:19.343Z,4.00
2023-06-30T14:49:48.921Z,4.00
2023-06-30T14:52:17.123Z,3.00
2023-06-30T14:54:45.248Z,0.33
2023-06-30T14:57:14.072Z,1.00
2023-06-30T14:59:42.260Z,2.40
2023-06-30T15:02:10.647Z,0.00
2023-06-30T15:04:38.818Z,3.00
2023-06-30T15:07:08.602Z,3.50
2023-06-30T15:09:36.766Z,1.60
2023-06-30T15:12:05.734Z,1.80
2023-06-30T15:14:34.328Z,1.60
2023-06-30T15:17:02.427Z,2.50
2023-06-30T15:19:30.524Z,2.00
2023-06-30T15:21:58.613Z,2.00
2023-06-30T15:24:28.036Z,2.00
2023-06-30T15:26:56.101Z,5.25
2023-06-30T15:29:24.166Z,2.00
2023-06-30T15:31:54.948Z,1.80
2023-06-30T15:34:23.576Z,2.60
2023-06-30T15:36:51.664Z,4.00
2023-06-30T15:39:19.738Z,5.00
2023-06-30T15:41:49.262Z,3.00
2023-06-30T15:44:17.338Z,2.60
2023-06-30T15:46:45.422Z,2.00
2023-06-30T15:49:13.547Z,3.00
2023-06-30T15:51:41.589Z,3.60
2023-06-30T15:54:09.771Z,2.80
2023-06-30T15:56:37.831Z,2.00
2023-06-30T15:59:07.250Z,2.00
2023-06-30T16:01:35.302Z,4.00
2023-06-30T16:04:03.410Z,2.00
2023-06-30T16:06:31.522Z,5.00
2023-06-30T16:08:59.608Z,2.00
2023-06-30T16:11:27.653Z,3.00
2023-06-30T16:13:55.747Z,1.60
2023-06-30T16:16:25.217Z,3.50
2023-06-30T16:18:53.437Z,3.20
2023-06-30T16:21:21.535Z,3.00
2023-06-30T16:23:49.790Z,1.20
2023-06-30T16:26:17.860Z,2.00
2023-06-30T16:28:45.934Z,4.00
2023-06-30T16:31:14.024Z,2.00
2023-06-30T16:33:43.537Z,2.00
2023-06-30T16:36:11.670Z,4.00
2023-06-30T16:38:40.751Z,3.40
2023-06-30T16:41:08.891Z,2.20
2023-06-30T16:43:36.970Z,2.60
2023-06-30T16:46:05.053Z,3.00
2023-06-30T16:48:33.102Z,6.00
2023-06-30T16:51:02.531Z,1.60
2023-06-30T16:53:30.578Z,1.80
2023-06-30T16:55:58.703Z,1.00
2023-06-30T16:58:26.932Z,1.75
2023-06-30T17:00:55.176Z,2.00
2023-06-30T17:03:23.328Z,5.00
2023-06-30T17:05:51.555Z,2.00
2023-06-30T17:08:21.032Z,2.00
2023-06-30T17:10:49.089Z,3.60
2023-06-30T17:13:17.206Z,4.40
2023-06-30T17:15:45.506Z,4.75
2023-06-30T17:18:13.837Z,4.00
2023-06-30T17:20:41.915Z,2.00
2023-06-30T17:23:10.133Z,2.00
2023-06-30T17:25:39.582Z,3.00
2023-06-30T17:28:07.680Z,3.25
2023-06-30T17:30:35.764Z,2.00
2023-06-30T17:33:05.810Z,4.50
2023-06-30T17:35:33.957Z,2.40
2023-06-30T17:38:02.053Z,2.60
2023-06-30T17:40:30.124Z,1.50
2023-06-30T17:42:59.561Z,4.00
2023-06-30T17:45:27.641Z,3.00
2023-06-30T17:47:55.790Z,3.60
2023-06-30T17:50:26.413Z,2.00
2023-06-30T17:52:54.856Z,3.00
2023-06-30T17:55:22.969Z,1.80
2023-06-30T17:57:51.024Z,3.00
2023-06-30T18:00:21.124Z,2.00
2023-06-30T18:02:50.335Z,4.00
2023-06-30T18:05:18.569Z,2.60
2023-06-30T18:07:46.722Z,1.00
2023-06-30T18:10:15.352Z,3.00
2023-06-30T18:12:43.479Z,3.00
2023-06-30T18:15:12.442Z,2.00
2023-06-30T18:17:41.924Z,4.00
2023-06-30T18:20:10.771Z,4.00
2023-06-30T18:22:38.889Z,1.25
2023-06-30T18:25:07.518Z,3.75
2023-06-30T18:27:36.798Z,2.60
2023-06-30T18:30:05.597Z,3.80
2023-06-30T18:32:35.331Z,4.00
2023-06-30T18:35:05.881Z,3.00
2023-06-30T18:37:35.759Z,3.00
2023-06-30T18:40:04.023Z,3.00
2023-06-30T18:42:32.115Z,4.00
2023-06-30T18:45:00.348Z,3.00
2023-06-30T18:47:28.553Z,3.00
2023-06-30T18:49:56.764Z,3.80
2023-06-30T18:52:26.247Z,6.00
2023-06-30T18:54:54.294Z,3.00
2023-06-30T18:57:22.363Z,3.00
2023-06-30T18:59:50.482Z,3.00
2023-06-30T19:02:18.567Z,2.00
2023-06-30T19:04:46.836Z,4.00
2023-06-30T19:07:15.040Z,4.00
2023-06-30T19:09:44.493Z,6.60
2023-06-30T19:12:13.034Z,9.00
2023-06-30T19:14:41.124Z,3.00
2023-06-30T19:17:09.499Z,6.00
2023-06-30T19:19:37.589Z,2.80
2023-06-30T19:22:07.270Z,3.20
2023-06-30T19:24:35.378Z,3.00
2023-06-30T19:27:05.118Z,5.20
2023-06-30T19:29:33.472Z,2.60
2023-06-30T19:32:01.937Z,2.75
2023-06-30T19:34:30.005Z,3.00
2023-06-30T19:36:59.790Z,2.00
2023-06-30T19:39:28.006Z,5.00
2023-06-30T19:41:57.597Z,10.00
2023-06-30T19:44:27.082Z,6.00
2023-06-30T19:46:55.233Z,6.00
2023-06-30T19:49:23.599Z,12.00
2023-06-30T19:51:51.675Z,7.20
2023-06-30T19:54:19.735Z,6.00
2023-06-30T19:56:47.866Z,4.00
2023-06-30T19:59:15.987Z,4.50
2023-06-30T20:01:45.472Z,6.00
2023-06-30T20:04:13.603Z,8.00
2023-06-30T20:06:41.980Z,6.25
2023-06-30T20:09:10.248Z,5.00
2023-06-30T20:11:38.339Z,5.25
2023-06-30T20:14:06.405Z,5.40
2023-06-30T20:16:34.519Z,4.60
2023-06-30T20:19:03.954Z,4.80
2023-06-30T20:21:32.035Z,5.40
2023-06-30T20:24:00.078Z,7.00
2023-06-30T20:26:28.190Z,6.20
2023-06-30T20:28:56.275Z,10.00
2023-06-30T20:31:24.355Z,4.60
2023-06-30T20:33:52.503Z,7.00
2023-06-30T20:36:22.046Z,9.50
2023-06-30T20:38:50.141Z,8.50
2023-06-30T20:41:18.193Z,7.00
2023-06-30T20:43:46.281Z,5.50
2023-06-30T20:46:14.396Z,6.00
2023-06-30T20:48:42.519Z,4.00
2023-06-30T20:51:10.555Z,4.60
2023-06-30T20:53:39.982Z,6.00
2023-06-30T20:56:08.040Z,6.00
2023-06-30T20:58:36.138Z,4.00
2023-06-30T21:01:04.206Z,5.50
2023-06-30T21:03:32.500Z,6.00
2023-06-30T21:06:00.655Z,6.25
2023-06-30T21:08:28.753Z,4.00
2023-06-30T21:10:58.199Z,5.20
2023-06-30T21:13:26.253Z,6.00
2023-06-30T21:15:54.364Z,5.40
2023-06-30T21:18:22.463Z,4.50
2023-06-30T21:20:50.527Z,5.00
2023-06-30T21:23:18.591Z,10.75
2023-06-30T21:25:46.682Z,7.20
2023-06-30T21:28:16.939Z,8.60
2023-06-30T21:30:46.742Z,5.00
2023-06-30T21:33:15.385Z,4.40
2023-06-30T21:35:43.536Z,7.00
2023-06-30T21:38:11.594Z,5.60
2023-06-30T21:40:39.676Z,4.00
2023-06-30T21:43:07.747Z,4.20
2023-06-30T21:45:37.175Z,4.00
2023-06-30T21:48:05.816Z,4.00
2023-06-30T21:50:33.904Z,7.00
2023-06-30T21:53:01.973Z,5.20
2023-06-30T21:55:30.059Z,103.25
2023-06-30T21:57:58.140Z,149.20
2023-06-30T22:00:26.182Z,87.80
2023-06-30T22:02:57.598Z,55.50
2023-06-30T22:05:26.963Z,29.00
2023-06-30T22:07:56.112Z,21.00
2023-06-30T22:10:25.305Z,29.60
2023-06-30T22:12:53.387Z,44.80
2023-06-30T22:15:23.150Z,31.00
2023-06-30T22:17:52.587Z,26.40
2023-06-30T22:20:22.963Z,18.00
2023-06-30T22:22:51.068Z,12.00
2023-06-30T22:25:21.550Z,10.50
2023-06-30T22:27:53.901Z,7.40
2023-06-30T22:30:22.159Z,8.60
2023-06-30T22:32:50.326Z,8.00
2023-06-30T22:35:18.474Z,8.40
2023-06-30T22:37:47.965Z,6.00
2023-06-30T22:40:17.293Z,8.60
2023-06-30T22:42:45.415Z,10.50
2023-06-30T22:45:13.571Z,41.00
2023-06-30T22:47:41.664Z,37.25
2023-06-30T22:50:10.490Z,66.40
2023-06-30T22:52:39.716Z,55.33
2023-06-30T22:55:10.408Z,43.25
2023-06-30T22:57:38.569Z,42.00
2023-06-30T23:00:07.694Z,28.80
2023-06-30T23:02:35.774Z,23.00
2023-06-30T23:05:04.764Z,26.50
2023-06-30T23:07:33.005Z,25.00
2023-06-30T23:10:01.072Z,15.00
2023-06-30T23:12:30.571Z,11.50
2023-06-30T23:14:58.643Z,12.00
2023-06-30T23:17:28.251Z,16.00
2023-06-30T23:19:56.834Z,28.00
2023-06-30T23:22:27.246Z,29.00
2023-06-30T23:24:55.394Z,42.50
2023-06-30T23:27:24.466Z,15.20
2023-06-30T23:29:54.140Z,5.00
2023-06-30T23:32:22.436Z,8.00
2023-06-30T23:34:50.646Z,12.75
2023-06-30T23:37:19.176Z,9.60
2023-06-30T23:39:48.446Z,8.00
2023-06-30T23:42:16.723Z,9.00
2023-06-30T23:44:44.786Z,9.50
2023-06-30T23:47:17.840Z,12.20
2023-06-30T23:49:47.388Z,13.25
2023-06-30T23:52:16.638Z,10.33
2023-06-30T23:54:44.999Z,13.40
2023-06-30T23:57:13.311Z,12.67
2023-06-30T23:59:41.407Z,13.80
